Time;durP1;ratioP1;P1;durP2;ratioP2;P2;SDS_P1;SDS_P2;PMS_P1;PMS_P2;Temp;Humidity;BMP_temperature;BMP_pressure;BME280_temperature;BME280_humidity;BME280_pressure;Samples;Min_cycle;Max_cycle;Signal;HPM_P1;HPM_P2
2023/07/28 00:00:34;;;;;;;1.80;0.60;;;;;;;33.03;21.96;100949.53;4940577;28;20047;-78
2023/07/28 00:03:03;;;;;;;1.95;0.70;;;;;;;32.89;22.03;100945.00;4943902;28;20103;-79
2023/07/28 00:05:33;;;;;;;1.00;0.60;;;;;;;32.67;22.70;100940.97;4944523;28;20398;-81
2023/07/28 00:08:01;;;;;;;1.98;0.70;;;;;;;32.62;22.82;100940.38;4945494;28;20521;-79
2023/07/28 00:10:30;;;;;;;1.35;0.60;;;;;;;32.61;22.94;100938.66;4943342;29;20506;-78
2023/07/28 00:12:59;;;;;;;2.05;0.73;;;;;;;32.52;21.92;100939.19;4942264;28;20043;-80
2023/07/28 00:15:27;;;;;;;0.50;0.50;;;;;;;32.37;21.79;100938.28;4946674;28;20481;-79
2023/07/28 00:17:57;;;;;;;1.40;0.68;;;;;;;32.24;22.43;100937.28;4942865;28;20055;-78
2023/07/28 00:20:26;;;;;;;2.55;0.70;;;;;;;32.06;23.20;100936.53;4945958;28;20055;-81
2023/07/28 00:22:56;;;;;;;1.70;0.70;;;;;;;32.06;23.86;100931.16;4939988;28;20501;-79
2023/07/28 00:25:25;;;;;;;3.08;0.60;;;;;;;32.04;23.24;100925.88;4941024;28;20043;-79
2023/07/28 00:27:58;;;;;;;1.23;0.65;;;;;;;32.09;23.45;100931.88;4942575;28;20899;-79
2023/07/28 00:30:27;;;;;;;0.63;0.60;;;;;;;32.17;22.51;100922.53;4947907;28;20051;-80
2023/07/28 00:32:55;;;;;;;1.95;0.80;;;;;;;32.25;23.16;100928.28;4941426;28;20063;-78
2023/07/28 00:35:25;;;;;;;0.60;0.52;;;;;;;32.27;23.00;100929.91;4939862;28;20319;-80
2023/07/28 00:37:55;;;;;;;1.45;0.70;;;;;;;32.30;23.47;100929.75;4942525;28;20062;-80
2023/07/28 00:40:24;;;;;;;1.20;0.50;;;;;;;32.24;22.68;100930.09;4943506;28;20051;-82
2023/07/28 00:42:53;;;;;;;1.27;0.52;;;;;;;32.14;23.01;100928.91;4937754;28;20046;-78
2023/07/28 00:45:22;;;;;;;1.25;0.65;;;;;;;31.93;23.57;100934.53;4941678;28;20147;-79
2023/07/28 00:47:51;;;;;;;1.65;0.60;;;;;;;31.80;22.67;100930.81;4944700;28;20516;-79
2023/07/28 00:50:20;;;;;;;1.90;0.50;;;;;;;31.80;24.04;100925.47;4947732;28;20075;-85
2023/07/28 00:52:49;;;;;;;0.50;0.50;;;;;;;31.82;24.23;100934.28;4942298;28;20625;-79
2023/07/28 00:55:19;;;;;;;1.02;0.55;;;;;;;31.89;24.62;100929.44;4942048;28;20072;-80
2023/07/28 00:57:48;;;;;;;2.08;0.63;;;;;;;31.91;23.46;100928.41;4923820;29;20048;-83
2023/07/28 01:00:17;;;;;;;1.42;0.60;;;;;;;31.96;23.75;100924.59;4927648;29;20056;-78
2023/07/28 01:02:46;;;;;;;1.00;0.60;;;;;;;31.79;24.66;100925.53;4927079;29;20058;-81
2023/07/28 01:05:14;;;;;;;1.38;0.57;;;;;;;31.61;23.63;100924.75;4934629;29;20048;-78
2023/07/28 01:07:48;;;;;;;0.77;0.65;;;;;;;31.43;23.88;100918.63;4928650;29;20047;-79
2023/07/28 01:10:31;;;;;;;1.17;0.60;;;;;;;31.24;24.55;100908.06;4927787;29;20515;-83
2023/07/28 01:13:00;;;;;;;1.90;0.50;;;;;;;31.03;23.84;100913.59;4926588;29;20561;-79
2023/07/28 01:15:29;;;;;;;2.38;0.70;;;;;;;30.87;25.48;100907.38;4928867;29;20103;-80
2023/07/28 01:17:58;;;;;;;1.45;0.60;;;;;;;30.71;25.08;100909.09;4922652;29;22396;-81
2023/07/28 01:20:30;;;;;;;1.13;0.80;;;;;;;30.56;25.74;100902.72;4928934;29;20120;-80
2023/07/28 01:23:10;;;;;;;2.75;0.80;;;;;;;30.39;25.12;100900.94;4924279;29;20063;-79
2023/07/28 01:25:56;;;;;;;2.60;0.55;;;;;;;30.31;25.45;100897.81;4922171;29;20063;-83
2023/07/28 01:28:27;;;;;;;3.63;0.60;;;;;;;30.29;25.59;100905.03;4925899;29;20058;-83
2023/07/28 01:30:56;;;;;;;0.75;0.50;;;;;;;30.33;26.26;100896.78;4923963;29;20066;-79
2023/07/28 01:33:24;;;;;;;1.17;0.70;;;;;;;30.36;26.67;100903.78;4920077;29;20120;-80
2023/07/28 01:35:53;;;;;;;3.10;0.80;;;;;;;30.42;26.42;100895.44;4925326;29;20056;-80
2023/07/28 01:38:21;;;;;;;1.80;0.90;;;;;;;30.48;26.71;100889.78;4921842;29;20051;-81
2023/07/28 01:40:52;;;;;;;2.42;0.73;;;;;;;30.52;26.61;100891.34;4931255;29;20047;-78
2023/07/28 01:43:21;;;;;;;3.72;0.90;;;;;;;30.55;26.68;100899.19;4925368;29;20059;-78
2023/07/28 01:45:51;;;;;;;1.85;0.90;;;;;;;30.59;26.96;100891.91;4929589;29;20062;-78
2023/07/28 01:48:20;;;;;;;1.75;0.82;;;;;;;30.59;27.84;100892.75;4926676;29;20051;-80
2023/07/28 01:50:48;;;;;;;1.65;0.85;;;;;;;30.57;27.75;100893.78;4931349;29;20051;-82
2023/07/28 01:53:17;;;;;;;2.70;1.02;;;;;;;30.45;28.32;100888.13;4927343;29;20058;-81
2023/07/28 01:55:45;;;;;;;3.95;1.10;;;;;;;30.39;27.29;100892.91;4941478;28;20573;-79
2023/07/28 01:58:20;;;;;;;1.00;0.70;;;;;;;30.34;27.51;100886.97;4948583;28;20059;-79
2023/07/28 02:00:50;;;;;;;1.45;0.70;;;;;;;30.29;27.48;100894.34;4950495;28;20478;-77
2023/07/28 02:03:19;;;;;;;1.50;0.77;;;;;;;30.28;28.47;100890.78;4948923;28;20055;-77
2023/07/28 02:05:48;;;;;;;1.33;0.80;;;;;;;30.29;28.31;100895.22;4950553;28;20123;-79
2023/07/28 02:08:23;;;;;;;2.10;0.88;;;;;;;30.25;27.53;100899.78;4945816;28;20120;-81
2023/07/28 02:10:52;;;;;;;2.22;0.88;;;;;;;30.19;28.40;100894.78;4947723;28;20043;-81
2023/07/28 02:13:20;;;;;;;2.78;0.93;;;;;;;30.16;29.35;100894.91;4939588;28;20481;-84
2023/07/28 02:15:51;;;;;;;2.55;0.80;;;;;;;30.10;28.35;100899.69;4939576;28;20047;-81
2023/07/28 02:18:19;;;;;;;2.35;1.08;;;;;;;29.98;28.80;100907.38;4944262;28;20130;-81
2023/07/28 02:20:50;;;;;;;2.03;1.00;;;;;;;29.89;29.61;100901.63;4942889;28;20905;-77
2023/07/28 02:23:19;;;;;;;2.70;0.90;;;;;;;29.81;29.74;100905.53;4947876;28;20048;-81
2023/07/28 02:25:47;;;;;;;2.40;0.95;;;;;;;29.69;30.34;100911.47;4949142;28;20071;-75
2023/07/28 02:28:16;;;;;;;6.45;1.98;;;;;;;29.57;30.23;100902.22;4947138;28;20066;-79
2023/07/28 02:30:45;;;;;;;3.03;0.90;;;;;;;29.47;30.24;100911.56;4944448;28;20529;-81
2023/07/28 02:33:15;;;;;;;3.15;1.10;;;;;;;29.34;30.93;100913.06;4943082;28;20172;-83
2023/07/28 02:35:44;;;;;;;2.83;1.00;;;;;;;29.21;31.40;100912.81;4951008;28;20107;-80
2023/07/28 02:38:12;;;;;;;2.63;0.93;;;;;;;29.07;31.40;100913.41;4940980;28;20043;-81
2023/07/28 02:40:41;;;;;;;4.07;0.98;;;;;;;28.95;31.93;100914.78;4946915;28;20039;-80
2023/07/28 02:43:12;;;;;;;2.65;0.98;;;;;;;28.83;31.63;100921.53;4946545;28;20549;-79
2023/07/28 02:45:40;;;;;;;3.33;1.02;;;;;;;28.66;32.20;100923.22;4947519;28;20606;-79
2023/07/28 02:48:09;;;;;;;3.85;1.00;;;;;;;28.47;32.22;100923.97;4941701;28;20054;-78
2023/07/28 02:50:39;;;;;;;2.92;1.05;;;;;;;28.37;32.79;100923.47;4935275;28;20131;-79
2023/07/28 02:53:08;;;;;;;2.72;0.90;;;;;;;28.28;32.65;100917.69;4947318;28;20047;-79
2023/07/28 02:55:43;;;;;;;3.20;1.30;;;;;;;28.18;33.10;100923.38;4955234;28;20087;-81
2023/07/28 02:58:12;;;;;;;3.40;1.00;;;;;;;28.06;33.04;100920.34;4943274;28;20047;-80
2023/07/28 03:00:41;;;;;;;2.10;1.23;;;;;;;27.90;33.20;100922.75;4943700;28;20062;-80
2023/07/28 03:03:13;;;;;;;2.50;0.95;;;;;;;27.76;33.77;100940.13;4943791;28;20054;-80
2023/07/28 03:05:43;;;;;;;4.25;1.10;;;;;;;27.64;34.09;100929.94;4946813;28;20114;-82
2023/07/28 03:08:11;;;;;;;3.05;0.90;;;;;;;27.53;34.22;100940.13;4947834;28;20047;-81
2023/07/28 03:10:40;;;;;;;2.45;1.02;;;;;;;27.41;34.40;100937.94;4949496;28;21172;-80
2023/07/28 03:13:08;;;;;;;1.17;0.80;;;;;;;27.32;35.11;100937.34;4943245;28;20572;-80
2023/07/28 03:15:37;;;;;;;2.80;0.90;;;;;;;27.29;34.76;100944.59;4945191;28;20043;-79
2023/07/28 03:18:05;;;;;;;2.00;1.20;;;;;;;27.22;34.70;100946.59;4946935;28;20101;-82
2023/07/28 03:20:34;;;;;;;2.25;0.90;;;;;;;27.18;34.75;100947.59;4942574;28;20055;-82
2023/07/28 03:23:04;;;;;;;2.83;1.02;;;;;;;27.17;34.77;100956.50;4948507;28;20047;-82
2023/07/28 03:25:33;;;;;;;1.60;0.85;;;;;;;27.12;35.01;100961.09;4944547;28;20047;-83
2023/07/28 03:28:01;;;;;;;1.95;0.93;;;;;;;27.08;34.77;100960.34;4941694;28;20071;-82
2023/07/28 03:30:30;;;;;;;2.10;1.00;;;;;;;27.00;35.10;100958.88;4947496;28;20043;-83
2023/07/28 03:32:59;;;;;;;3.20;1.00;;;;;;;26.93;35.33;100964.41;4942660;28;20063;-80
2023/07/28 03:35:27;;;;;;;3.17;1.13;;;;;;;26.88;35.62;100969.03;4947733;28;20043;-81
2023/07/28 03:37:56;;;;;;;3.60;1.00;;;;;;;26.86;35.61;100965.53;4946724;28;20059;-82
2023/07/28 03:40:26;;;;;;;4.15;1.10;;;;;;;26.76;35.72;100961.50;4947835;28;20084;-80
2023/07/28 03:42:55;;;;;;;3.33;1.17;;;;;;;26.69;36.03;100973.25;4944722;28;20054;-80
2023/07/28 03:45:24;;;;;;;3.33;1.30;;;;;;;26.62;35.84;100977.00;4944082;28;20054;-78
2023/07/28 03:47:52;;;;;;;3.30;1.15;;;;;;;26.54;35.89;100974.56;4945894;28;20039;-79
2023/07/28 03:50:24;;;;;;;3.47;1.00;;;;;;;26.45;36.39;100975.75;4945487;28;20051;-78
2023/07/28 03:52:53;;;;;;;2.95;0.95;;;;;;;26.38;36.60;100971.56;4942116;28;20056;-81
2023/07/28 03:55:21;;;;;;;2.72;1.10;;;;;;;26.30;36.31;100977.13;4942980;28;20209;-78
2023/07/28 03:57:51;;;;;;;2.50;1.08;;;;;;;26.23;36.43;100988.00;4948513;28;20450;-80
2023/07/28 04:00:20;;;;;;;4.97;1.38;;;;;;;26.15;36.95;100992.66;4945664;29;20043;-80
2023/07/28 04:02:49;;;;;;;1.27;0.80;;;;;;;26.08;36.74;100997.28;4937946;28;20200;-77
2023/07/28 04:05:17;;;;;;;1.67;0.90;;;;;;;25.95;37.21;101004.75;4942861;28;20054;-76
2023/07/28 04:07:46;;;;;;;2.45;1.10;;;;;;;25.84;37.21;100996.25;4940572;28;20422;-82
2023/07/28 04:10:15;;;;;;;2.55;0.90;;;;;;;25.78;36.94;100999.06;4943054;28;20048;-83
2023/07/28 04:12:43;;;;;;;1.95;1.00;;;;;;;25.74;37.12;101002.72;4946194;28;20055;-82
2023/07/28 04:15:16;;;;;;;1.45;0.70;;;;;;;25.67;37.42;101008.19;4946331;28;20089;-82
2023/07/28 04:17:45;;;;;;;3.03;1.20;;;;;;;25.63;37.54;101011.88;4944908;28;20051;-84
2023/07/28 04:20:14;;;;;;;3.70;1.10;;;;;;;25.57;37.88;101012.03;4944594;28;20537;-83
2023/07/28 04:22:42;;;;;;;2.15;1.00;;;;;;;25.50;37.67;101015.78;4946717;28;20552;-82
2023/07/28 04:25:11;;;;;;;2.30;0.90;;;;;;;25.44;38.27;101026.53;4938941;28;20051;-82
2023/07/28 04:27:40;;;;;;;3.33;1.50;;;;;;;25.36;37.87;101020.56;4942648;28;20060;-82
2023/07/28 04:30:09;;;;;;;2.25;0.90;;;;;;;25.28;37.55;101024.28;4952763;28;20058;-79
2023/07/28 04:32:39;;;;;;;2.63;0.88;;;;;;;25.22;37.31;101027.13;4947016;28;20047;-81
2023/07/28 04:35:08;;;;;;;1.50;0.93;;;;;;;25.17;37.43;101028.97;4944716;28;20067;-80
2023/07/28 04:37:37;;;;;;;2.72;0.95;;;;;;;25.12;37.87;101030.88;4946339;28;20047;-82
2023/07/28 04:40:08;;;;;;;5.60;1.00;;;;;;;25.07;37.61;101032.78;4948163;28;20044;-80
2023/07/28 04:42:36;;;;;;;1.90;1.05;;;;;;;25.01;36.55;101040.88;4944011;28;20114;-80
2023/07/28 04:45:06;;;;;;;2.58;0.90;;;;;;;24.91;36.70;101034.09;4948650;28;20750;-83
2023/07/28 04:47:34;;;;;;;2.85;1.00;;;;;;;24.82;36.84;101036.06;4941997;28;20589;-82
2023/07/28 04:50:05;;;;;;;2.00;0.82;;;;;;;24.76;36.44;101038.00;4948537;28;20114;-78
2023/07/28 04:52:33;;;;;;;3.03;0.70;;;;;;;24.68;36.67;101038.19;4942423;28;20917;-80
2023/07/28 04:55:02;;;;;;;3.15;0.98;;;;;;;24.61;36.68;101037.47;4946369;28;20062;-82
2023/07/28 04:57:31;;;;;;;7.70;0.85;;;;;;;24.57;36.89;101042.88;4944096;28;20048;-80
2023/07/28 04:59:59;;;;;;;2.75;0.73;;;;;;;24.42;36.58;101033.50;4949645;28;20562;-82
2023/07/28 05:02:28;;;;;;;6.50;1.35;;;;;;;24.42;36.70;101044.94;4941846;28;20054;-84
2023/07/28 05:04:56;;;;;;;2.45;0.80;;;;;;;24.35;37.28;101058.34;4946143;28;20054;-82
2023/07/28 05:07:28;;;;;;;2.55;1.00;;;;;;;24.28;39.25;101046.16;4943579;28;20063;-87
2023/07/28 05:09:57;;;;;;;2.53;1.02;;;;;;;24.24;38.12;101050.66;4942289;28;20055;-81
2023/07/28 05:12:26;;;;;;;3.85;1.00;;;;;;;24.18;38.08;101042.84;4946990;28;20908;-84
2023/07/28 05:14:55;;;;;;;2.83;0.90;;;;;;;24.12;38.56;101037.69;4947247;28;20492;-83
2023/07/28 05:17:24;;;;;;;1.98;0.90;;;;;;;24.02;38.22;101043.19;4947166;28;20518;-83
2023/07/28 05:19:53;;;;;;;1.70;0.77;;;;;;;23.94;38.79;101046.94;4944543;28;20056;-83
2023/07/28 05:22:21;;;;;;;2.17;0.70;;;;;;;23.85;38.25;101045.34;4950573;28;20389;-82
2023/07/28 05:24:52;;;;;;;1.20;0.80;;;;;;;23.78;38.04;101043.72;4946840;28;20474;-83
2023/07/28 05:27:21;;;;;;;2.50;0.98;;;;;;;23.71;38.92;101044.69;4946152;28;20142;-86
2023/07/28 05:29:49;;;;;;;2.95;0.77;;;;;;;23.66;38.92;101049.22;4952972;28;20066;-82
2023/07/28 05:32:18;;;;;;;2.45;0.90;;;;;;;23.61;38.96;101050.16;4945066;28;20054;-81
2023/07/28 05:34:47;;;;;;;2.78;1.00;;;;;;;23.58;39.76;101047.59;4947848;28;20054;-82
2023/07/28 05:37:16;;;;;;;3.25;1.10;;;;;;;;;;4949386;28;20150;-85
2023/07/28 05:39:44;;;;;;;2.55;0.80;;;;;;;23.46;39.99;101045.22;4945389;28;20540;-87
2023/07/28 05:42:14;;;;;;;5.03;1.13;;;;;;;23.39;39.62;101049.72;4945441;28;20054;-87
2023/07/28 05:44:43;;;;;;;5.05;1.30;;;;;;;23.36;39.61;101043.63;4944841;28;20099;-88
2023/07/28 05:47:11;;;;;;;1.52;0.80;;;;;;;23.29;39.94;101047.28;4953150;28;20047;-84
2023/07/28 05:49:40;;;;;;;3.42;1.08;;;;;;;23.21;40.23;101050.06;4946936;28;20044;-82
2023/07/28 05:52:09;;;;;;;2.55;1.33;;;;;;;23.15;40.30;101050.19;4950037;28;20047;-83
2023/07/28 05:54:38;;;;;;;2.40;1.00;;;;;;;23.09;40.64;101059.09;4948599;28;20044;-83
2023/07/28 05:57:07;;;;;;;1.60;0.90;;;;;;;23.03;40.86;101058.31;4949967;28;20051;-83
2023/07/28 05:59:37;;;;;;;1.92;1.20;;;;;;;22.95;41.25;101063.66;4947925;28;20094;-83
2023/07/28 06:02:06;;;;;;;3.17;1.00;;;;;;;22.88;41.76;101064.69;4945364;28;20615;-81
2023/07/28 06:04:34;;;;;;;3.40;1.08;;;;;;;22.80;42.12;101065.69;4946102;28;20051;-81
2023/07/28 06:07:03;;;;;;;1.95;0.93;;;;;;;22.74;42.19;101070.19;4942779;28;20046;-81
2023/07/28 06:09:35;;;;;;;3.72;1.08;;;;;;;22.64;42.63;101058.91;4945079;28;20063;-80
2023/07/28 06:12:03;;;;;;;2.65;0.80;;;;;;;22.53;43.62;101066.09;4946904;28;20493;-83
2023/07/28 06:14:32;;;;;;;1.73;1.05;;;;;;;22.43;43.34;101065.38;4944029;28;20298;-81
2023/07/28 06:17:02;;;;;;;1.67;1.02;;;;;;;22.33;43.64;101074.31;4942474;28;20414;-80
2023/07/28 06:19:31;;;;;;;2.42;1.08;;;;;;;22.25;43.69;101082.31;4945679;28;20058;-82
2023/07/28 06:22:00;;;;;;;3.17;1.10;;;;;;;22.17;44.10;101078.88;4950102;28;20080;-83
2023/07/28 06:24:28;;;;;;;2.90;0.98;;;;;;;22.12;44.36;101076.28;4944539;28;20128;-80
2023/07/28 06:26:57;;;;;;;1.30;0.80;;;;;;;22.06;44.84;101075.50;4945172;28;20050;-80
2023/07/28 06:29:25;;;;;;;4.05;0.90;;;;;;;22.03;45.11;101083.47;4946328;28;20491;-82
2023/07/28 06:31:56;;;;;;;5.68;1.10;;;;;;;22.01;44.98;101082.59;4944586;28;20063;-83
2023/07/28 06:34:27;;;;;;;4.28;1.20;;;;;;;21.97;45.02;101092.31;4943263;28;20734;-84
2023/07/28 06:36:56;;;;;;;1.40;0.70;;;;;;;21.91;45.35;101093.25;4949888;28;20055;-83
2023/07/28 06:39:24;;;;;;;1.17;0.82;;;;;;;21.85;44.99;101093.34;4942951;28;20130;-83
2023/07/28 06:41:53;;;;;;;2.67;0.68;;;;;;;21.78;45.39;101091.66;4945065;28;20501;-82
2023/07/28 06:44:22;;;;;;;2.40;1.02;;;;;;;21.72;45.98;101086.47;4945118;28;20134;-82
2023/07/28 06:46:51;;;;;;;1.80;0.80;;;;;;;21.67;45.75;101098.78;4948370;28;20134;-81
2023/07/28 06:49:20;;;;;;;1.48;0.93;;;;;;;21.62;46.23;101095.34;4948119;28;20066;-82
2023/07/28 06:51:50;;;;;;;3.50;0.85;;;;;;;21.59;46.26;101091.00;4951067;28;20124;-80
2023/07/28 06:54:19;;;;;;;3.17;1.05;;;;;;;21.54;46.16;101098.06;4949644;28;20051;-82
2023/07/28 06:56:48;;;;;;;4.72;1.00;;;;;;;21.50;46.04;101102.47;4944767;28;20091;-82
2023/07/28 06:59:16;;;;;;;1.42;0.80;;;;;;;21.48;46.51;101106.88;4958874;28;20449;-84
2023/07/28 07:01:45;;;;;;;0.95;0.65;;;;;;;21.47;46.49;101110.44;4949509;28;20404;-80
2023/07/28 07:04:14;;;;;;;2.33;1.10;;;;;;;21.47;46.60;101113.06;4948001;28;20050;-82
2023/07/28 07:06:43;;;;;;;4.82;0.77;;;;;;;21.49;47.00;101110.41;4943666;28;20358;-84
2023/07/28 07:09:14;;;;;;;1.60;0.82;;;;;;;21.48;46.61;101109.53;4947861;28;20126;-85
2023/07/28 07:11:43;;;;;;;4.13;1.02;;;;;;;21.43;46.79;101106.06;4947910;28;20051;-84
2023/07/28 07:14:11;;;;;;;1.85;0.70;;;;;;;21.40;47.11;101113.09;4940126;28;20051;-82
2023/07/28 07:16:40;;;;;;;4.40;0.98;;;;;;;21.34;47.13;101114.03;4948144;28;20056;-82
2023/07/28 07:19:09;;;;;;;1.98;0.70;;;;;;;21.29;47.19;101107.94;4944540;28;20544;-82
2023/07/28 07:21:37;;;;;;;4.22;1.10;;;;;;;21.26;47.33;101113.25;4949010;28;20051;-82
2023/07/28 07:24:07;;;;;;;1.23;0.80;;;;;;;21.20;47.68;101115.91;4949647;28;20119;-82
2023/07/28 07:26:37;;;;;;;2.65;1.00;;;;;;;21.15;47.94;101120.34;4950850;28;20616;-83
2023/07/28 07:29:05;;;;;;;3.10;0.82;;;;;;;21.07;48.11;101117.75;4949300;28;20111;-80
2023/07/28 07:31:35;;;;;;;2.53;0.98;;;;;;;20.99;48.44;101117.84;4946076;28;20529;-82
2023/07/28 07:34:05;;;;;;;2.78;0.63;;;;;;;20.96;48.79;101117.88;4945738;28;20051;-81
2023/07/28 07:36:33;;;;;;;2.08;0.85;;;;;;;20.92;48.87;101118.78;4944416;28;20095;-84
2023/07/28 07:39:02;;;;;;;1.10;0.70;;;;;;;20.85;49.15;101115.31;4950435;28;20062;-84
2023/07/28 07:41:31;;;;;;;3.00;0.82;;;;;;;20.80;49.22;101121.47;4946596;28;20142;-84
2023/07/28 07:44:02;;;;;;;2.70;0.80;;;;;;;20.74;49.49;101122.41;4947598;28;20051;-81
2023/07/28 07:46:30;;;;;;;1.92;1.00;;;;;;;20.69;50.10;101117.16;4945247;28;20091;-84
2023/07/28 07:48:59;;;;;;;3.17;1.00;;;;;;;20.66;50.34;101119.81;4950446;28;20123;-82
2023/07/28 07:51:28;;;;;;;2.17;0.90;;;;;;;20.61;50.62;101123.34;4951628;28;20770;-86
2023/07/28 07:53:56;;;;;;;2.03;0.75;;;;;;;20.57;52.83;101122.50;4945111;28;20047;-83
2023/07/28 07:56:25;;;;;;;4.47;1.10;;;;;;;20.52;53.81;101118.97;4949247;28;20942;-85
2023/07/28 07:58:54;;;;;;;3.47;1.20;;;;;;;20.48;53.63;101109.38;4950021;28;20082;-84
2023/07/28 08:01:24;;;;;;;2.13;1.10;;;;;;;20.44;54.57;101115.53;4948938;28;20073;-82
2023/07/28 08:03:53;;;;;;;2.85;1.10;;;;;;;20.38;55.01;101120.81;4949650;28;20066;-82
2023/07/28 08:06:22;;;;;;;2.78;1.17;;;;;;;20.28;56.14;101125.25;4951356;28;21050;-86
2023/07/28 08:08:52;;;;;;;2.38;1.05;;;;;;;20.19;57.19;101126.16;4950835;28;20186;-85
2023/07/28 08:11:21;;;;;;;3.92;1.10;;;;;;;20.11;58.38;101121.81;4951025;28;20047;-83
2023/07/28 08:13:49;;;;;;;4.45;1.42;;;;;;;20.03;58.73;101120.09;4952430;28;20044;-85
2023/07/28 08:16:18;;;;;;;4.70;1.02;;;;;;;19.95;59.07;101121.00;4951378;28;20609;-83
2023/07/28 08:18:49;;;;;;;3.13;1.30;;;;;;;19.85;59.59;101125.41;4947542;28;20107;-82
2023/07/28 08:21:17;;;;;;;2.10;1.00;;;;;;;19.76;59.52;101113.16;4951169;28;20078;-83
2023/07/28 08:23:46;;;;;;;3.78;1.05;;;;;;;19.69;59.80;101118.44;4952942;28;20043;-84
2023/07/28 08:26:15;;;;;;;2.75;1.27;;;;;;;19.61;60.00;101119.31;4951866;28;20047;-84
2023/07/28 08:28:44;;;;;;;4.40;1.58;;;;;;;19.53;60.42;101121.06;4947814;28;20043;-82
2023/07/28 08:31:12;;;;;;;5.07;1.30;;;;;;;19.45;61.17;101115.84;4945895;28;20066;-81
2023/07/28 08:33:41;;;;;;;2.67;1.10;;;;;;;19.38;61.31;101119.34;4944353;28;20043;-83
2023/07/28 08:36:11;;;;;;;2.75;1.08;;;;;;;19.35;61.02;101123.72;4948736;28;20059;-83
2023/07/28 08:38:40;;;;;;;2.30;1.13;;;;;;;19.32;61.23;101124.59;4950091;28;20061;-83
2023/07/28 08:41:09;;;;;;;6.18;1.55;;;;;;;19.29;61.41;101127.22;4944662;28;20047;-82
2023/07/28 08:43:38;;;;;;;4.10;1.48;;;;;;;19.24;61.73;101121.97;4948794;28;20051;-83
2023/07/28 08:46:07;;;;;;;1.52;1.00;;;;;;;19.20;62.31;101124.59;4949877;28;20433;-83
2023/07/28 08:48:36;;;;;;;3.17;1.25;;;;;;;19.13;62.38;101115.00;4950015;28;20122;-83
2023/07/28 08:51:05;;;;;;;5.32;1.38;;;;;;;19.09;62.67;101119.34;4940033;28;20080;-83
2023/07/28 08:53:37;;;;;;;3.83;1.42;;;;;;;19.00;63.01;101117.59;4947685;28;20051;-83
2023/07/28 08:56:07;;;;;;;3.45;1.20;;;;;;;18.92;63.75;101108.88;4948465;28;20062;-83
2023/07/28 08:58:36;;;;;;;2.72;1.05;;;;;;;18.89;63.97;101115.84;4947394;28;20086;-82
2023/07/28 09:01:05;;;;;;;3.35;1.20;;;;;;;18.87;63.39;101115.84;4948155;28;20051;-83
2023/07/28 09:03:33;;;;;;;4.75;1.92;;;;;;;18.82;63.94;101110.59;4953982;28;20054;-83
2023/07/28 09:06:11;;;;;;;2.80;1.20;;;;;;;18.75;63.87;101115.78;4947941;28;20077;-85
2023/07/28 09:08:44;;;;;;;3.40;1.20;;;;;;;18.67;64.03;101123.66;4954296;28;20409;-81
2023/07/28 09:11:15;;;;;;;5.97;1.58;;;;;;;18.55;66.06;101114.00;4949355;28;20055;-82
2023/07/28 09:13:44;;;;;;;4.88;1.52;;;;;;;18.46;66.50;101108.72;4949813;28;20077;-81
2023/07/28 09:16:24;;;;;;;5.68;1.50;;;;;;;18.32;66.93;101110.44;4953047;28;20313;-83
2023/07/28 09:18:53;;;;;;;1.83;1.15;;;;;;;18.25;66.95;101109.53;4945921;28;20528;-83
2023/07/28 09:21:23;;;;;;;4.95;1.17;;;;;;;18.23;65.74;101110.41;4958723;28;20067;-83
2023/07/28 09:23:54;;;;;;;2.25;0.95;;;;;;;18.20;66.04;101104.28;4965451;28;20075;-85
2023/07/28 09:26:23;;;;;;;3.50;1.30;;;;;;;18.16;66.40;101109.50;4964821;28;20039;-85
2023/07/28 09:28:52;;;;;;;6.10;1.45;;;;;;;18.12;66.42;101108.63;4958860;28;20129;-84
2023/07/28 09:31:32;;;;;;;4.38;1.55;;;;;;;18.07;66.63;101104.22;4946725;28;20047;-82
2023/07/28 09:34:00;;;;;;;2.95;1.15;;;;;;;18.06;66.83;101107.72;4944554;28;20095;-83
2023/07/28 09:36:29;;;;;;;4.82;1.00;;;;;;;18.03;66.83;101103.38;4943451;28;20055;-83
2023/07/28 09:39:01;;;;;;;2.20;1.15;;;;;;;18.03;67.00;101107.69;4949384;28;20082;-82
2023/07/28 09:41:32;;;;;;;2.40;1.27;;;;;;;18.02;67.51;101103.34;4947273;28;20069;-82
2023/07/28 09:44:01;;;;;;;2.63;0.90;;;;;;;17.99;67.62;101098.97;4950668;28;20494;-84
2023/07/28 09:46:31;;;;;;;4.38;1.08;;;;;;;17.97;68.18;101095.47;4948895;28;20047;-84
2023/07/28 09:49:05;;;;;;;3.08;1.40;;;;;;;17.96;68.97;101098.97;4945227;28;20645;-83
2023/07/28 09:51:37;;;;;;;4.88;1.75;;;;;;;17.95;69.10;101099.81;4949579;28;20103;-85
2023/07/28 09:54:13;;;;;;;2.08;1.17;;;;;;;17.93;69.21;101105.03;4952412;28;20555;-85
2023/07/28 09:56:43;;;;;;;5.70;1.42;;;;;;;17.90;69.62;101101.53;4952242;28;20048;-83
2023/07/28 09:59:14;;;;;;;5.15;1.70;;;;;;;17.86;70.00;101102.41;4948623;28;20087;-81
2023/07/28 10:01:45;;;;;;;4.18;1.10;;;;;;;17.80;69.93;101103.22;4947008;28;20039;-82
2023/07/28 10:04:14;;;;;;;4.97;1.92;;;;;;;17.79;70.56;101099.69;4946882;28;20098;-82
2023/07/28 10:06:43;;;;;;;2.88;1.20;;;;;;;17.76;70.19;101097.06;4943994;28;20069;-85
2023/07/28 10:09:16;;;;;;;4.55;1.42;;;;;;;17.73;71.01;101099.69;4950736;28;20607;-84
2023/07/28 10:11:45;;;;;;;3.15;1.40;;;;;;;17.71;70.82;101104.03;4952865;28;20050;-84
2023/07/28 10:14:33;;;;;;;2.00;0.93;;;;;;;17.67;70.67;101104.88;4949335;28;20051;-84
2023/07/28 10:17:02;;;;;;;1.88;1.38;;;;;;;17.62;71.11;101110.97;4951449;28;20051;-83
2023/07/28 10:19:31;;;;;;;3.10;1.40;;;;;;;17.54;70.80;101114.38;4946807;28;20517;-82
2023/07/28 10:22:02;;;;;;;1.98;1.00;;;;;;;17.46;71.54;101120.44;4949491;28;20702;-83
2023/07/28 10:24:55;;;;;;;4.20;1.30;;;;;;;17.42;72.06;101118.69;4950784;28;20049;-84
2023/07/28 10:27:36;;;;;;;2.95;1.40;;;;;;;17.32;72.54;101113.38;4960028;28;20051;-82
2023/07/28 10:30:11;;;;;;;3.53;1.00;;;;;;;17.26;73.99;101115.94;4942051;28;20885;-82
2023/07/28 10:32:41;;;;;;;2.25;1.40;;;;;;;17.21;74.42;101116.78;4951323;28;20106;-83
2023/07/28 10:35:26;;;;;;;3.90;1.15;;;;;;;17.18;73.42;101115.00;4944024;28;20047;-82
2023/07/28 10:37:57;;;;;;;4.15;1.48;;;;;;;17.15;74.15;101114.97;4946718;28;20054;-82
2023/07/28 10:40:30;;;;;;;3.10;1.17;;;;;;;17.13;74.69;101127.16;4948319;28;20420;-82
2023/07/28 10:42:58;;;;;;;2.88;1.40;;;;;;;17.13;74.48;101120.22;4940936;28;20421;-83
2023/07/28 10:45:28;;;;;;;6.72;1.48;;;;;;;17.12;74.04;101125.41;4943088;28;20051;-84
2023/07/28 10:47:59;;;;;;;3.47;1.63;;;;;;;17.08;73.91;101124.50;4948309;28;20055;-82
2023/07/28 10:50:30;;;;;;;2.50;1.25;;;;;;;17.07;74.04;101124.50;4952022;28;20066;-80
2023/07/28 10:52:59;;;;;;;3.55;1.40;;;;;;;17.06;74.44;101126.22;4950839;28;20061;-82
2023/07/28 10:55:30;;;;;;;3.10;1.17;;;;;;;17.04;75.03;101130.59;4950067;28;20103;-82
2023/07/28 10:57:58;;;;;;;2.17;1.35;;;;;;;17.03;74.94;101131.44;4947008;28;20142;-82
2023/07/28 11:00:29;;;;;;;2.10;1.02;;;;;;;17.01;74.81;101129.66;4949179;28;20051;-82
2023/07/28 11:02:57;;;;;;;2.97;0.93;;;;;;;16.98;74.81;101127.03;4953212;28;20055;-81
2023/07/28 11:05:28;;;;;;;2.15;1.15;;;;;;;16.96;74.99;101125.28;4950726;28;20205;-82
2023/07/28 11:07:58;;;;;;;1.92;1.02;;;;;;;16.93;74.86;101127.00;4947525;28;20048;-82
2023/07/28 11:10:29;;;;;;;3.47;1.58;;;;;;;16.90;74.46;101125.19;4951823;28;20058;-83
2023/07/28 11:13:00;;;;;;;2.20;0.98;;;;;;;16.87;74.06;101130.41;4945489;28;20055;-81
2023/07/28 11:15:29;;;;;;;4.15;1.00;;;;;;;16.84;74.31;101135.63;4944119;28;20051;-83
2023/07/28 11:17:58;;;;;;;2.05;1.05;;;;;;;16.83;74.31;101132.97;4951832;28;20069;-83
2023/07/28 11:20:29;;;;;;;2.13;1.10;;;;;;;16.80;75.28;101135.56;4948248;28;20047;-81
2023/07/28 11:22:59;;;;;;;2.60;1.05;;;;;;;16.75;74.86;101138.09;4947107;28;20485;-81
2023/07/28 11:25:31;;;;;;;2.67;1.10;;;;;;;16.72;75.26;101141.56;4948104;28;20047;-82
2023/07/28 11:28:02;;;;;;;1.95;1.15;;;;;;;16.69;74.49;101141.50;4958076;28;20058;-82
2023/07/28 11:30:32;;;;;;;3.25;1.52;;;;;;;16.67;75.10;101142.38;4951499;28;20050;-82
2023/07/28 11:33:03;;;;;;;5.80;1.13;;;;;;;16.63;75.23;101137.97;4948737;28;20058;-83
2023/07/28 11:35:32;;;;;;;6.80;1.35;;;;;;;16.62;74.64;101142.31;4951816;28;20048;-82
2023/07/28 11:38:01;;;;;;;5.07;1.20;;;;;;;16.59;74.22;101142.28;4950305;28;20111;-82